EDDW

Bremen

Airport
ICAO code
EDDW
Summary
ICAO Region
EUR
ICAO Territory
Location

Bremen, Germany,

Elevation
14 ft
Coordinates
53° 2' 51" N , 8° 47' 12" E
KCC
Metar
EDDW 202220Z AUTO 23014KT 9999 OVC016 09/06 Q1020

Description

International airport serving the German city of Bremen.

Climatology

Temperate Marine climate/Oceanic climate (Köppen climate classification Cfb) - Moderately cool summer and comparatively warm winter.

Runways

Designator Length Width Surface Rops
5/23 700 23 ASP Yes/Yes
9/27 2040 45 ASP Yes/Yes

Airport map

Aerial View

SKYbrary Partners:

Safety knowledge contributed by: